Murdock, Kansas
Current Conditions -  °F | °C
As of 4:40 PM on Sunday 23 Nov 2014 (Local Time) from KICT Reporting Station
Moderate Rain Moderate Rain  
Wind Chill: 34°   Ceiling: 1600
Heat Index: 43°   Visibility: 4mi
Dew Point: 39°   Wind: 24mph
Humidity: 86%   Direction: 350°N
Pressure: 29.52"   Gusts: 30mph
Location:  37.61°N, 97.93°W
Report Text: KICT 232240Z 35021G26KT 4SM RA BR BKN016 OVC031 06/04 A2952 RMK AO2 PK WND 34035/2155 P0004 T00610039
Loading
Personal Weather Stations






























Interactive Weather Map New forecast layout! Learn more

10-Day Weather Forecast

Advertisements
Track Severe Weather on mobile